createdAt,value
2022-09-27T00:01:18.786Z,11.20
2022-09-27T00:03:45.848Z,11.20
2022-09-27T00:06:13.576Z,11.20
2022-09-27T00:08:40.651Z,11.20
2022-09-27T00:11:09.512Z,11.10
2022-09-27T00:13:36.714Z,11.10
2022-09-27T00:16:05.423Z,11.10
2022-09-27T00:18:32.971Z,11.20
2022-09-27T00:21:07.234Z,11.20
2022-09-27T00:23:34.436Z,11.20
2022-09-27T00:26:01.694Z,11.20
2022-09-27T00:28:28.743Z,11.20
2022-09-27T00:30:56.231Z,11.10
2022-09-27T00:33:23.480Z,11.10
2022-09-27T00:35:50.544Z,11.10
2022-09-27T00:38:17.587Z,11.10
2022-09-27T00:40:44.901Z,11.00
2022-09-27T00:43:16.666Z,10.90
2022-09-27T00:45:44.640Z,10.90
2022-09-27T00:48:11.674Z,10.80
2022-09-27T00:50:42.809Z,10.60
2022-09-27T00:53:17.869Z,10.50
2022-09-27T00:55:46.880Z,10.60
2022-09-27T00:58:14.246Z,10.60
2022-09-27T01:00:42.642Z,10.70
2022-09-27T01:03:09.740Z,10.60
2022-09-27T01:05:36.947Z,10.60
2022-09-27T01:08:04.045Z,10.60
2022-09-27T01:10:32.512Z,10.60
2022-09-27T01:13:07.789Z,10.60
2022-09-27T01:15:40.890Z,10.60
2022-09-27T01:18:10.891Z,10.50
2022-09-27T01:20:41.380Z,10.60
2022-09-27T01:23:14.473Z,10.60
2022-09-27T01:25:41.588Z,10.60
2022-09-27T01:28:08.680Z,10.60
2022-09-27T01:30:39.533Z,10.50
2022-09-27T01:33:22.068Z,10.40
2022-09-27T01:36:07.566Z,10.40
2022-09-27T01:38:44.341Z,10.50
2022-09-27T01:41:13.348Z,10.40
2022-09-27T01:43:55.510Z,10.40
2022-09-27T01:46:38.466Z,10.30
2022-09-27T01:49:33.050Z,10.30
2022-09-27T01:52:00.680Z,10.30
2022-09-27T01:54:33.937Z,10.30
2022-09-27T01:57:20.667Z,10.40
2022-09-27T01:59:50.250Z,10.40
2022-09-27T02:02:48.074Z,10.40
2022-09-27T02:05:31.710Z,10.20
2022-09-27T02:08:05.706Z,10.20
2022-09-27T02:10:37.688Z,10.10
2022-09-27T02:13:10.907Z,10.10
2022-09-27T02:15:48.081Z,10.10
2022-09-27T02:18:52.218Z,10.10
2022-09-27T02:21:19.760Z,10.10
2022-09-27T02:23:54.930Z,10.10
2022-09-27T02:26:30.905Z,10.00
2022-09-27T02:29:05.763Z,10.00
2022-09-27T02:31:40.131Z,10.00
2022-09-27T02:34:09.073Z,10.00
2022-09-27T02:36:36.190Z,10.00
2022-09-27T02:39:03.326Z,10.00
2022-09-27T02:41:31.951Z,10.10
2022-09-27T02:43:59.972Z,10.10
2022-09-27T02:46:31.604Z,10.10
2022-09-27T02:49:18.358Z,10.10
2022-09-27T02:52:14.068Z,10.20
2022-09-27T02:54:41.533Z,10.20
2022-09-27T02:57:28.479Z,10.30
2022-09-27T03:00:09.313Z,10.20
2022-09-27T03:02:53.557Z,10.30
2022-09-27T03:05:41.689Z,10.30
2022-09-27T03:08:08.908Z,10.40
2022-09-27T03:10:36.365Z,10.40
2022-09-27T03:13:04.881Z,10.40
2022-09-27T03:15:32.414Z,10.40
2022-09-27T03:18:02.360Z,10.40
2022-09-27T03:20:47.882Z,10.40
2022-09-27T03:23:17.328Z,10.40
2022-09-27T03:25:44.551Z,10.40
2022-09-27T03:28:13.071Z,10.40
2022-09-27T03:30:44.639Z,10.40
2022-09-27T03:33:13.924Z,10.40
2022-09-27T03:35:43.935Z,10.30
2022-09-27T03:38:11.025Z,10.30
2022-09-27T03:40:38.825Z,10.30
2022-09-27T03:43:07.119Z,10.30
2022-09-27T03:45:34.514Z,10.30
2022-09-27T03:48:05.875Z,10.20
2022-09-27T03:50:32.981Z,10.20
2022-09-27T03:53:00.014Z,10.20
2022-09-27T03:55:27.179Z,10.00
2022-09-27T03:57:54.206Z,9.90
2022-09-27T04:00:21.470Z,9.90
2022-09-27T04:02:48.713Z,9.80
2022-09-27T04:05:25.776Z,9.80
2022-09-27T04:07:58.925Z,9.80
2022-09-27T04:10:25.998Z,9.90
2022-09-27T04:12:53.048Z,9.90
2022-09-27T04:15:22.810Z,9.90
2022-09-27T04:17:49.935Z,9.90
2022-09-27T04:20:36.945Z,9.80
2022-09-27T04:23:09.564Z,9.80
2022-09-27T04:25:42.394Z,9.80
2022-09-27T04:28:18.418Z,9.70
2022-09-27T04:30:45.907Z,9.80
2022-09-27T04:33:13.087Z,9.80
2022-09-27T04:36:04.475Z,9.80
2022-09-27T04:38:32.978Z,9.70
2022-09-27T04:41:03.089Z,9.70
2022-09-27T04:43:33.745Z,9.70
2022-09-27T04:46:01.032Z,9.70
2022-09-27T04:48:28.181Z,9.60
2022-09-27T04:50:55.962Z,9.60
2022-09-27T04:53:23.135Z,9.60
2022-09-27T04:55:50.181Z,9.60
2022-09-27T04:58:17.646Z,9.60
2022-09-27T05:00:45.435Z,9.60
2022-09-27T05:03:35.572Z,9.60
2022-09-27T05:06:10.568Z,9.60
2022-09-27T05:08:37.661Z,9.70
2022-09-27T05:11:25.131Z,9.70
2022-09-27T05:14:11.761Z,9.60
2022-09-27T05:16:49.149Z,9.70
2022-09-27T05:19:34.583Z,9.70
2022-09-27T05:22:11.469Z,9.70
2022-09-27T05:24:39.190Z,9.70
2022-09-27T05:27:08.136Z,9.70
2022-09-27T05:29:35.276Z,9.70
2022-09-27T05:32:10.052Z,9.70
2022-09-27T05:34:37.511Z,9.70
2022-09-27T05:37:04.658Z,9.60
2022-09-27T05:39:36.826Z,9.60
2022-09-27T05:42:04.940Z,9.60
2022-09-27T05:44:32.071Z,9.60
2022-09-27T05:47:03.214Z,9.60
2022-09-27T05:49:31.863Z,9.60
2022-09-27T05:51:59.048Z,9.60
2022-09-27T05:54:29.843Z,9.50
2022-09-27T05:56:58.311Z,9.50
2022-09-27T05:59:38.986Z,9.40
2022-09-27T06:02:35.273Z,9.40
2022-09-27T06:05:20.987Z,9.40
2022-09-27T06:08:09.174Z,9.30
2022-09-27T06:10:41.810Z,9.30
2022-09-27T06:13:12.878Z,9.30
2022-09-27T06:15:42.805Z,9.30
2022-09-27T06:18:11.117Z,9.30
2022-09-27T06:20:39.331Z,9.30
2022-09-27T06:23:07.550Z,9.30
2022-09-27T06:25:37.992Z,9.30
2022-09-27T06:28:20.451Z,9.40
2022-09-27T06:30:50.601Z,9.40
2022-09-27T06:33:40.514Z,9.40
2022-09-27T06:36:07.872Z,9.40
2022-09-27T06:38:37.079Z,9.40
2022-09-27T06:41:17.740Z,9.50
2022-09-27T06:44:03.406Z,9.60
2022-09-27T06:46:42.811Z,9.70
2022-09-27T06:49:31.537Z,9.70
2022-09-27T06:51:58.765Z,9.80
2022-09-27T06:54:25.819Z,9.80
2022-09-27T06:56:53.322Z,9.80
2022-09-27T06:59:39.204Z,9.90
2022-09-27T07:02:27.800Z,9.90
2022-09-27T07:05:10.378Z,10.00
2022-09-27T07:07:58.058Z,10.20
2022-09-27T07:10:25.719Z,10.30
2022-09-27T07:12:54.928Z,10.30
2022-09-27T07:15:22.332Z,10.40
2022-09-27T07:17:59.135Z,10.40
2022-09-27T07:20:29.452Z,10.40
2022-09-27T07:22:56.616Z,10.30
2022-09-27T07:25:24.531Z,10.30
2022-09-27T07:27:52.586Z,10.30
2022-09-27T07:30:19.810Z,10.40
2022-09-27T07:32:47.084Z,10.30
2022-09-27T07:35:15.508Z,10.30
2022-09-27T07:37:44.946Z,10.30
2022-09-27T07:40:13.215Z,10.40
2022-09-27T07:42:41.578Z,10.50
2022-09-27T07:45:09.446Z,10.60
2022-09-27T07:47:55.014Z,10.60
2022-09-27T07:50:50.035Z,10.60
2022-09-27T07:53:37.796Z,10.50
2022-09-27T07:56:23.262Z,10.50
2022-09-27T07:58:50.550Z,10.50
2022-09-27T08:01:17.672Z,10.50
2022-09-27T08:03:44.889Z,10.60
2022-09-27T08:06:12.755Z,10.70
2022-09-27T08:08:41.021Z,10.70
2022-09-27T08:11:14.591Z,10.60
2022-09-27T08:13:42.450Z,10.00
2022-09-27T08:16:11.072Z,9.60
2022-09-27T08:19:07.296Z,9.20
2022-09-27T08:21:42.135Z,8.90
2022-09-27T08:24:32.664Z,8.70
2022-09-27T08:27:19.919Z,8.60
2022-09-27T08:30:07.502Z,8.60
2022-09-27T08:32:34.587Z,8.60
2022-09-27T08:35:02.445Z,8.50
2022-09-27T08:37:29.854Z,8.50
2022-09-27T08:39:57.046Z,8.40
2022-09-27T08:42:39.530Z,8.50
2022-09-27T08:45:26.972Z,8.50
2022-09-27T08:47:55.121Z,8.60
2022-09-27T08:50:39.040Z,8.70
2022-09-27T08:53:11.429Z,8.90
2022-09-27T08:55:40.005Z,9.10
2022-09-27T08:58:13.490Z,9.50
2022-09-27T09:00:40.697Z,9.50
2022-09-27T09:03:14.183Z,9.50
2022-09-27T09:05:41.302Z,9.50
2022-09-27T09:08:16.398Z,9.40
2022-09-27T09:11:34.718Z,9.50
2022-09-27T09:14:05.200Z,9.60
2022-09-27T09:16:35.846Z,9.80
2022-09-27T09:19:06.234Z,9.90
2022-09-27T09:21:57.966Z,10.20
2022-09-27T09:24:25.019Z,10.20
2022-09-27T09:27:14.915Z,10.30
2022-09-27T09:29:59.967Z,10.40
2022-09-27T09:32:56.959Z,10.50
2022-09-27T09:35:25.901Z,10.50
2022-09-27T09:37:53.847Z,10.40
2022-09-27T09:40:32.405Z,10.40
2022-09-27T09:43:02.630Z,10.20
2022-09-27T09:45:45.887Z,10.20
2022-09-27T09:48:22.371Z,10.10
2022-09-27T09:50:50.834Z,10.00
2022-09-27T09:53:19.350Z,9.90
2022-09-27T09:55:48.936Z,9.90
2022-09-27T09:58:19.746Z,10.00
2022-09-27T10:00:50.458Z,10.20
2022-09-27T10:03:17.589Z,10.30
2022-09-27T10:05:45.497Z,10.20
2022-09-27T10:08:13.499Z,10.30
2022-09-27T10:10:41.087Z,10.20
2022-09-27T10:13:29.871Z,10.10
2022-09-27T10:16:10.675Z,10.00
2022-09-27T10:18:39.113Z,10.00
2022-09-27T10:21:10.899Z,9.80
2022-09-27T10:23:37.978Z,9.80
2022-09-27T10:26:27.614Z,9.70
2022-09-27T10:28:54.754Z,9.70
2022-09-27T10:31:34.112Z,9.80
2022-09-27T10:34:16.594Z,10.00
2022-09-27T10:36:47.146Z,10.10
2022-09-27T10:39:24.193Z,10.10
2022-09-27T10:41:52.162Z,9.90
2022-09-27T10:44:39.988Z,9.80
2022-09-27T10:47:22.859Z,9.80
2022-09-27T10:50:03.739Z,9.60
2022-09-27T10:52:42.830Z,9.50
2022-09-27T10:55:25.858Z,9.40
2022-09-27T10:57:55.270Z,9.40
2022-09-27T11:00:23.675Z,9.60
2022-09-27T11:02:51.770Z,9.80
2022-09-27T11:05:29.371Z,10.10
2022-09-27T11:07:57.402Z,10.40
2022-09-27T11:10:40.321Z,10.70
2022-09-27T11:13:09.190Z,10.70
2022-09-27T11:15:39.649Z,10.70
2022-09-27T11:18:12.317Z,10.80
2022-09-27T11:20:39.760Z,10.80
2022-09-27T11:23:09.819Z,10.70
2022-09-27T11:25:46.375Z,10.50
2022-09-27T11:28:33.663Z,10.40
2022-09-27T11:31:19.619Z,10.20
2022-09-27T11:33:57.032Z,10.20
2022-09-27T11:36:44.494Z,10.00
2022-09-27T11:39:14.709Z,9.90
2022-09-27T11:41:43.099Z,9.90
2022-09-27T11:44:28.959Z,10.00
2022-09-27T11:46:59.283Z,10.10
2022-09-27T11:49:47.388Z,10.30
2022-09-27T11:52:17.497Z,10.80
2022-09-27T11:54:53.843Z,10.90
2022-09-27T11:57:26.429Z,10.90
2022-09-27T12:00:05.278Z,10.90
2022-09-27T12:02:57.810Z,10.80
2022-09-27T12:05:44.224Z,10.60
2022-09-27T12:08:14.412Z,10.60
2022-09-27T12:10:41.978Z,10.60
2022-09-27T12:13:10.475Z,10.60
2022-09-27T12:15:39.061Z,10.70
2022-09-27T12:18:14.519Z,10.80
2022-09-27T12:20:42.438Z,10.80
2022-09-27T12:23:29.020Z,10.70
2022-09-27T12:26:04.150Z,11.00
2022-09-27T12:28:59.482Z,11.40
2022-09-27T12:31:30.415Z,11.60
2022-09-27T12:33:58.307Z,11.70
2022-09-27T12:36:25.947Z,11.70
2022-09-27T12:38:53.022Z,11.70
2022-09-27T12:41:20.879Z,12.00
2022-09-27T12:43:59.649Z,12.30
2022-09-27T12:46:41.547Z,12.30
2022-09-27T12:49:17.962Z,12.20
2022-09-27T12:51:46.749Z,12.10
2022-09-27T12:54:13.777Z,12.10
2022-09-27T12:57:00.507Z,12.00
2022-09-27T12:59:47.822Z,11.90
2022-09-27T13:02:30.957Z,12.10
2022-09-27T13:05:04.830Z,12.20
2022-09-27T13:07:34.859Z,12.20
2022-09-27T13:10:08.234Z,12.10
2022-09-27T13:12:36.991Z,11.90
2022-09-27T13:15:07.531Z,11.90
2022-09-27T13:17:40.701Z,12.00
2022-09-27T13:20:28.202Z,12.20
2022-09-27T13:22:55.417Z,12.30
2022-09-27T13:25:54.262Z,12.30
2022-09-27T13:28:33.437Z,12.20
2022-09-27T13:31:07.540Z,12.20
2022-09-27T13:33:49.027Z,12.00
2022-09-27T13:36:26.131Z,11.90
2022-09-27T13:39:01.776Z,11.70
2022-09-27T13:41:46.350Z,11.70
2022-09-27T13:44:32.821Z,11.60
2022-09-27T13:47:00.734Z,11.60
2022-09-27T13:49:39.515Z,11.50
2022-09-27T13:52:20.595Z,11.40
2022-09-27T13:54:51.642Z,11.40
2022-09-27T13:57:47.631Z,11.30
2022-09-27T14:00:18.650Z,11.20
2022-09-27T14:03:02.584Z,11.20
2022-09-27T14:05:35.287Z,11.20
2022-09-27T14:08:02.489Z,11.20
2022-09-27T14:10:30.315Z,11.10
2022-09-27T14:12:59.042Z,11.00
2022-09-27T14:15:27.407Z,11.00
2022-09-27T14:17:54.603Z,11.00
2022-09-27T14:20:34.521Z,10.90
2022-09-27T14:23:03.362Z,10.80
2022-09-27T14:25:38.571Z,11.00
2022-09-27T14:28:18.378Z,11.20
2022-09-27T14:31:06.742Z,11.40
2022-09-27T14:34:05.862Z,11.40
2022-09-27T14:36:51.617Z,11.20
2022-09-27T14:39:23.973Z,11.00
2022-09-27T14:41:52.674Z,10.70
2022-09-27T14:44:20.442Z,10.70
2022-09-27T14:46:52.149Z,10.60
2022-09-27T14:49:23.207Z,10.60
2022-09-27T14:51:50.994Z,10.60
2022-09-27T14:54:21.923Z,10.60
2022-09-27T14:56:52.811Z,10.60
2022-09-27T14:59:31.026Z,10.60
2022-09-27T15:02:03.311Z,10.50
2022-09-27T15:04:32.143Z,10.50
2022-09-27T15:07:00.162Z,10.60
2022-09-27T15:09:30.903Z,10.60
2022-09-27T15:12:05.102Z,10.60
2022-09-27T15:14:33.846Z,10.60
2022-09-27T15:17:05.749Z,10.60
2022-09-27T15:19:33.463Z,10.60
2022-09-27T15:22:19.279Z,10.50
2022-09-27T15:24:46.420Z,10.60
2022-09-27T15:27:18.149Z,10.60
2022-09-27T15:29:49.394Z,10.60
2022-09-27T15:32:16.445Z,10.80
2022-09-27T15:34:43.479Z,11.20
2022-09-27T15:37:24.093Z,11.40
2022-09-27T15:39:51.110Z,11.60
2022-09-27T15:42:19.495Z,11.80
2022-09-27T15:44:49.410Z,11.70
2022-09-27T15:47:34.830Z,11.60
2022-09-27T15:50:17.314Z,11.40
2022-09-27T15:52:51.163Z,11.40
2022-09-27T15:55:19.578Z,11.30
2022-09-27T15:57:47.939Z,11.10
2022-09-27T16:00:18.486Z,11.00
2022-09-27T16:02:45.494Z,10.90
2022-09-27T16:05:12.631Z,10.70
2022-09-27T16:07:39.807Z,10.60
2022-09-27T16:10:23.543Z,10.40
2022-09-27T16:12:50.951Z,10.30
2022-09-27T16:15:17.952Z,10.30
2022-09-27T16:17:44.977Z,10.30
2022-09-27T16:20:35.354Z,10.20
2022-09-27T16:23:02.470Z,10.20
2022-09-27T16:25:29.510Z,10.20
2022-09-27T16:27:59.964Z,10.20
2022-09-27T16:30:27.075Z,10.10
2022-09-27T16:32:54.540Z,10.10
2022-09-27T16:35:21.942Z,10.10
2022-09-27T16:37:49.080Z,10.00
2022-09-27T16:40:18.519Z,10.00
2022-09-27T16:42:47.722Z,10.10
2022-09-27T16:45:19.255Z,10.00
2022-09-27T16:47:46.927Z,10.00
2022-09-27T16:50:32.582Z,10.00
2022-09-27T16:53:00.141Z,10.00
2022-09-27T16:55:28.588Z,9.90
2022-09-27T16:57:57.745Z,9.90
2022-09-27T17:00:25.229Z,9.90
2022-09-27T17:02:53.119Z,9.90
2022-09-27T17:05:20.795Z,9.80
2022-09-27T17:07:51.931Z,9.70
2022-09-27T17:10:19.507Z,9.60
2022-09-27T17:12:48.377Z,9.60
2022-09-27T17:15:15.468Z,9.50
2022-09-27T17:17:42.466Z,9.50
2022-09-27T17:20:09.467Z,9.40
2022-09-27T17:22:36.507Z,9.30
2022-09-27T17:25:03.669Z,9.20
2022-09-27T17:27:30.677Z,9.20
2022-09-27T17:29:57.715Z,9.10
2022-09-27T17:32:24.798Z,9.10
2022-09-27T17:34:52.009Z,9.00
2022-09-27T17:37:19.041Z,8.90
2022-09-27T17:39:46.057Z,8.90
2022-09-27T17:42:13.101Z,8.90
2022-09-27T17:44:40.154Z,8.90
2022-09-27T17:47:25.950Z,8.90
2022-09-27T17:50:11.366Z,8.90
2022-09-27T17:52:38.367Z,8.80
2022-09-27T17:55:05.467Z,8.80
2022-09-27T17:57:32.471Z,8.80
2022-09-27T17:59:59.502Z,8.80
2022-09-27T18:02:26.704Z,8.80
2022-09-27T18:04:53.770Z,8.80
2022-09-27T18:07:21.131Z,8.80
2022-09-27T18:09:48.205Z,8.90
2022-09-27T18:12:16.686Z,8.90
2022-09-27T18:14:43.722Z,8.90
2022-09-27T18:17:12.785Z,8.80
2022-09-27T18:19:39.919Z,8.80
2022-09-27T18:22:07.255Z,8.80
2022-09-27T18:24:34.238Z,8.70
2022-09-27T18:27:01.602Z,8.70
2022-09-27T18:29:28.808Z,8.70
2022-09-27T18:31:55.864Z,8.70
2022-09-27T18:34:23.009Z,8.70
2022-09-27T18:36:50.011Z,8.70
2022-09-27T18:39:19.007Z,8.70
2022-09-27T18:41:48.464Z,8.70
2022-09-27T18:44:15.541Z,8.70
2022-09-27T18:46:42.639Z,8.70
2022-09-27T18:49:10.630Z,8.70
2022-09-27T18:51:39.872Z,8.80
2022-09-27T18:54:08.112Z,8.70
2022-09-27T18:56:39.219Z,8.80
2022-09-27T18:59:08.532Z,8.70
2022-09-27T19:01:39.355Z,8.80
2022-09-27T19:04:07.245Z,8.80
2022-09-27T19:06:34.344Z,8.80
2022-09-27T19:09:01.945Z,8.80
2022-09-27T19:11:28.957Z,8.80
2022-09-27T19:13:56.518Z,8.80
2022-09-27T19:16:24.060Z,8.80
2022-09-27T19:18:51.278Z,8.80
2022-09-27T19:21:19.350Z,8.80
2022-09-27T19:23:46.450Z,8.80
2022-09-27T19:26:14.195Z,8.80
2022-09-27T19:28:41.831Z,8.80
2022-09-27T19:31:09.647Z,8.70
2022-09-27T19:33:36.703Z,8.70
2022-09-27T19:36:04.263Z,8.70
2022-09-27T19:38:37.846Z,8.70
2022-09-27T19:41:05.341Z,8.70
2022-09-27T19:43:32.419Z,8.70
2022-09-27T19:46:06.082Z,8.70
2022-09-27T19:48:33.138Z,8.70
2022-09-27T19:51:00.383Z,8.70
2022-09-27T19:53:31.734Z,8.70
2022-09-27T19:56:03.163Z,8.80
2022-09-27T19:58:30.495Z,8.80
2022-09-27T20:01:07.460Z,8.80
2022-09-27T20:03:35.395Z,8.80
2022-09-27T20:06:02.719Z,8.80
2022-09-27T20:08:29.841Z,8.80
2022-09-27T20:11:00.299Z,8.80
2022-09-27T20:13:29.697Z,8.80
2022-09-27T20:16:03.855Z,8.80
2022-09-27T20:18:31.052Z,8.80
2022-09-27T20:21:01.474Z,8.80
2022-09-27T20:23:31.872Z,8.80
2022-09-27T20:26:02.193Z,8.80
2022-09-27T20:28:29.255Z,8.80
2022-09-27T20:30:59.861Z,8.80
2022-09-27T20:33:42.153Z,8.80
2022-09-27T20:36:15.578Z,8.80
2022-09-27T20:38:43.271Z,8.80
2022-09-27T20:41:10.736Z,8.70
2022-09-27T20:43:38.122Z,8.70
2022-09-27T20:46:06.096Z,8.70
2022-09-27T20:48:33.221Z,8.80
2022-09-27T20:51:04.406Z,8.80
2022-09-27T20:53:32.454Z,8.80
2022-09-27T20:55:59.885Z,8.80
2022-09-27T20:58:27.058Z,8.70
2022-09-27T21:00:54.168Z,8.70
2022-09-27T21:03:22.026Z,8.60
2022-09-27T21:05:55.670Z,8.60
2022-09-27T21:08:22.767Z,8.60
2022-09-27T21:10:52.703Z,8.60
2022-09-27T21:13:20.056Z,8.60
2022-09-27T21:15:47.160Z,8.50
2022-09-27T21:18:14.250Z,8.50
2022-09-27T21:20:41.252Z,8.50
2022-09-27T21:23:08.274Z,8.50
2022-09-27T21:25:35.276Z,8.50
2022-09-27T21:28:04.252Z,8.50
2022-09-27T21:30:31.499Z,8.50
2022-09-27T21:32:58.531Z,8.50
2022-09-27T21:35:25.560Z,8.50
2022-09-27T21:37:55.087Z,8.40
2022-09-27T21:40:23.015Z,8.40
2022-09-27T21:42:52.389Z,8.40
2022-09-27T21:45:22.687Z,8.40
2022-09-27T21:47:49.700Z,8.40
2022-09-27T21:50:16.694Z,8.50
2022-09-27T21:52:43.699Z,8.50
2022-09-27T21:55:10.689Z,8.40
2022-09-27T21:57:37.696Z,8.50
2022-09-27T22:00:04.950Z,8.50
2022-09-27T22:02:31.949Z,8.50
2022-09-27T22:04:59.201Z,8.50
2022-09-27T22:07:26.230Z,8.60
2022-09-27T22:09:53.226Z,8.60
2022-09-27T22:12:20.304Z,8.60
2022-09-27T22:14:47.774Z,8.60
2022-09-27T22:17:14.781Z,8.60
2022-09-27T22:19:41.799Z,8.60
2022-09-27T22:22:08.781Z,8.60
2022-09-27T22:24:35.813Z,8.60
2022-09-27T22:27:02.819Z,8.50
2022-09-27T22:29:29.839Z,8.50
2022-09-27T22:31:56.834Z,8.50
2022-09-27T22:34:29.175Z,8.60
2022-09-27T22:36:56.925Z,8.60
2022-09-27T22:39:24.055Z,8.60
2022-09-27T22:41:51.115Z,8.50
2022-09-27T22:44:18.146Z,8.60
2022-09-27T22:46:45.958Z,8.60
2022-09-27T22:49:13.700Z,8.60
2022-09-27T22:51:40.811Z,8.60
2022-09-27T22:54:07.850Z,8.60
2022-09-27T22:56:34.850Z,8.60
2022-09-27T22:59:01.846Z,8.60
2022-09-27T23:01:28.938Z,8.60
2022-09-27T23:03:56.163Z,8.50
2022-09-27T23:06:23.299Z,8.50
2022-09-27T23:08:51.191Z,8.50
2022-09-27T23:11:18.968Z,8.50
2022-09-27T23:13:46.065Z,8.50
2022-09-27T23:16:14.418Z,8.40
2022-09-27T23:18:42.156Z,8.40
2022-09-27T23:21:10.049Z,8.50
2022-09-27T23:23:37.900Z,8.40
2022-09-27T23:26:05.541Z,8.40
2022-09-27T23:28:32.641Z,8.40
2022-09-27T23:31:07.921Z,8.50
2022-09-27T23:33:38.685Z,8.40
2022-09-27T23:36:05.981Z,8.40
2022-09-27T23:38:33.023Z,8.50
2022-09-27T23:41:00.238Z,8.50
2022-09-27T23:43:27.350Z,8.50
2022-09-27T23:45:57.061Z,8.60
2022-09-27T23:48:24.653Z,8.60
2022-09-27T23:50:52.134Z,8.70
2022-09-27T23:53:19.865Z,8.80
2022-09-27T23:55:46.921Z,8.90
2022-09-27T23:58:13.905Z,8.90
